createdAt,value
2023-04-18T00:02:17.324Z,97555.00
2023-04-18T00:04:47.939Z,97557.52
2023-04-18T00:07:19.495Z,97559.66
2023-04-18T00:09:49.708Z,97555.66
2023-04-18T00:12:20.657Z,97555.31
2023-04-18T00:14:52.112Z,97555.30
2023-04-18T00:17:22.759Z,97551.13
2023-04-18T00:19:54.231Z,97550.79
2023-04-18T00:22:24.505Z,97548.47
2023-04-18T00:24:55.136Z,97548.92
2023-04-18T00:27:25.772Z,97548.65
2023-04-18T00:29:56.061Z,97549.25
2023-04-18T00:32:26.302Z,97544.95
2023-04-18T00:34:56.653Z,97547.85
2023-04-18T00:37:27.220Z,97542.61
2023-04-18T00:39:57.956Z,97542.96
2023-04-18T00:42:29.157Z,97543.19
2023-04-18T00:44:59.804Z,97537.53
2023-04-18T00:47:30.536Z,97538.67
2023-04-18T00:50:01.215Z,97538.52
2023-04-18T00:52:33.633Z,97541.68
2023-04-18T00:55:05.075Z,97541.58
2023-04-18T00:57:35.872Z,97541.56
2023-04-18T01:00:09.828Z,97543.59
2023-04-18T01:02:41.144Z,97541.90
2023-04-18T01:05:12.395Z,97537.27
2023-04-18T01:07:42.756Z,97534.90
2023-04-18T01:10:13.486Z,97535.63
2023-04-18T01:12:44.304Z,97532.86
2023-04-18T01:15:15.762Z,97531.24
2023-04-18T01:17:48.691Z,97531.35
2023-04-18T01:20:23.420Z,97533.06
2023-04-18T01:22:54.547Z,97532.67
2023-04-18T01:25:25.307Z,97531.62
2023-04-18T01:27:55.763Z,97526.70
2023-04-18T01:30:26.051Z,97523.90
2023-04-18T01:32:56.306Z,97524.44
2023-04-18T01:35:29.580Z,97520.58
2023-04-18T01:38:00.144Z,97520.66
2023-04-18T01:40:31.396Z,97526.31
2023-04-18T01:43:01.649Z,97528.94
2023-04-18T01:45:32.279Z,97526.77
2023-04-18T01:48:02.657Z,97527.62
2023-04-18T01:50:33.289Z,97523.81
2023-04-18T01:53:03.446Z,97527.05
2023-04-18T01:55:33.932Z,97518.16
2023-04-18T01:58:04.176Z,97515.80
2023-04-18T02:00:34.583Z,97516.06
2023-04-18T02:03:05.368Z,97516.02
2023-04-18T02:05:37.753Z,97511.73
2023-04-18T02:08:08.183Z,97511.78
2023-04-18T02:10:39.570Z,97513.59
2023-04-18T02:13:10.102Z,97516.19
2023-04-18T02:15:40.602Z,97516.64
2023-04-18T02:18:11.927Z,97516.06
2023-04-18T02:20:42.649Z,97520.59
2023-04-18T02:23:13.131Z,97521.18
2023-04-18T02:25:43.929Z,97521.05
2023-04-18T02:28:14.705Z,97521.98
2023-04-18T02:30:45.240Z,97522.20
2023-04-18T02:33:15.666Z,97518.00
2023-04-18T02:35:45.932Z,97521.33
2023-04-18T02:38:16.959Z,97522.64
2023-04-18T02:40:47.287Z,97524.29
2023-04-18T02:43:17.483Z,97524.94
2023-04-18T02:45:48.314Z,97526.73
2023-04-18T02:48:18.726Z,97524.83
2023-04-18T02:50:49.131Z,97532.45
2023-04-18T02:53:19.675Z,97531.77
2023-04-18T02:55:50.122Z,97530.59
2023-04-18T02:58:25.170Z,97526.39
2023-04-18T03:00:56.361Z,97529.75
2023-04-18T03:03:26.770Z,97528.11
2023-04-18T03:05:57.584Z,97527.72
2023-04-18T03:08:28.356Z,97526.67
2023-04-18T03:10:59.307Z,97526.10
2023-04-18T03:13:29.563Z,97522.12
2023-04-18T03:16:00.764Z,97521.52
2023-04-18T03:18:31.214Z,97524.27
2023-04-18T03:21:01.979Z,97523.39
2023-04-18T03:23:32.280Z,97524.00
2023-04-18T03:26:02.873Z,97522.54
2023-04-18T03:28:33.580Z,97521.65
2023-04-18T03:31:04.100Z,97525.56
2023-04-18T03:33:35.089Z,97528.19
2023-04-18T03:36:06.457Z,97529.52
2023-04-18T03:38:40.496Z,97529.38
2023-04-18T03:41:10.839Z,97528.08
2023-04-18T03:43:41.536Z,97528.67
2023-04-18T03:46:13.732Z,97528.65
2023-04-18T03:48:44.332Z,97531.70
2023-04-18T03:51:15.088Z,97533.97
2023-04-18T03:53:45.839Z,97534.19
2023-04-18T03:56:16.568Z,97531.85
2023-04-18T03:58:46.814Z,97532.90
2023-04-18T04:01:17.509Z,97532.20
2023-04-18T04:03:48.313Z,97533.52
2023-04-18T04:06:21.474Z,97534.42
2023-04-18T04:08:51.801Z,97536.66
2023-04-18T04:11:22.146Z,97534.90
2023-04-18T04:13:52.863Z,97538.34
2023-04-18T04:16:23.552Z,97538.40
2023-04-18T04:18:54.088Z,97537.20
2023-04-18T04:21:24.348Z,97536.45
2023-04-18T04:23:55.508Z,97537.65
2023-04-18T04:26:27.298Z,97539.22
2023-04-18T04:28:58.906Z,97534.48
2023-04-18T04:31:29.732Z,97531.77
2023-04-18T04:34:00.279Z,97532.88
2023-04-18T04:36:30.806Z,97532.85
2023-04-18T04:39:03.892Z,97534.33
2023-04-18T04:41:37.298Z,97533.08
2023-04-18T04:44:07.856Z,97533.65
2023-04-18T04:46:40.077Z,97530.92
2023-04-18T04:49:10.271Z,97531.65
2023-04-18T04:51:40.727Z,97534.25
2023-04-18T04:54:11.431Z,97534.46
2023-04-18T04:56:41.908Z,97533.13
2023-04-18T04:59:20.098Z,97531.88
2023-04-18T05:01:51.539Z,97535.16
2023-04-18T05:04:22.800Z,97530.80
2023-04-18T05:06:53.287Z,97533.00
2023-04-18T05:09:23.446Z,97533.14
2023-04-18T05:11:55.756Z,97534.91
2023-04-18T05:14:29.825Z,97535.24
2023-04-18T05:17:01.679Z,97536.66
2023-04-18T05:19:34.088Z,97532.81
2023-04-18T05:22:05.448Z,97530.79
2023-04-18T05:24:36.432Z,97535.44
2023-04-18T05:27:07.962Z,97533.63
2023-04-18T05:29:40.014Z,97533.94
2023-04-18T05:32:12.113Z,97530.84
2023-04-18T05:34:46.849Z,97531.75
2023-04-18T05:37:18.063Z,97535.79
2023-04-18T05:39:51.146Z,97536.34
2023-04-18T05:42:22.670Z,97535.50
2023-04-18T05:44:59.298Z,97535.22
2023-04-18T05:47:30.718Z,97531.20
2023-04-18T05:50:03.316Z,97524.89
2023-04-18T05:52:34.649Z,97524.79
2023-04-18T05:55:08.081Z,97529.42
2023-04-18T05:57:42.563Z,97527.50
2023-04-18T06:00:17.045Z,97526.95
2023-04-18T06:02:51.620Z,97526.70
2023-04-18T06:05:22.902Z,97530.20
2023-04-18T06:07:54.610Z,97532.79
2023-04-18T06:10:26.634Z,97535.28
2023-04-18T06:13:00.753Z,97534.22
2023-04-18T06:15:32.028Z,97538.02
2023-04-18T06:18:07.857Z,97543.86
2023-04-18T06:20:40.062Z,97545.33
2023-04-18T06:23:23.631Z,97539.17
2023-04-18T06:25:55.962Z,97536.95
2023-04-18T06:28:34.507Z,97533.02
2023-04-18T06:31:08.692Z,97530.98
2023-04-18T06:33:40.856Z,97530.71
2023-04-18T06:36:12.406Z,97527.09
2023-04-18T06:38:44.295Z,97521.23
2023-04-18T06:41:17.081Z,97518.64
2023-04-18T06:44:02.235Z,97517.27
2023-04-18T06:46:36.176Z,97512.83
2023-04-18T06:49:08.607Z,97512.96
2023-04-18T06:51:40.152Z,97516.64
2023-04-18T06:54:12.909Z,97514.05
2023-04-18T06:56:45.517Z,97509.16
2023-04-18T06:59:22.116Z,97508.66
2023-04-18T07:01:56.981Z,97507.45
2023-04-18T07:04:29.714Z,97508.51
2023-04-18T07:07:01.951Z,97506.02
2023-04-18T07:09:35.062Z,97510.63
2023-04-18T07:12:14.682Z,97504.62
2023-04-18T07:14:46.857Z,97507.75
2023-04-18T07:17:17.888Z,97505.08
2023-04-18T07:19:48.528Z,97501.91
2023-04-18T07:22:18.993Z,97500.45
2023-04-18T07:24:49.402Z,97496.83
2023-04-18T07:27:20.925Z,97498.52
2023-04-18T07:29:52.346Z,97495.83
2023-04-18T07:32:23.004Z,97493.49
2023-04-18T07:34:55.182Z,97497.46
2023-04-18T07:37:25.949Z,97493.38
2023-04-18T07:39:56.296Z,97491.77
2023-04-18T07:42:27.387Z,97484.30
2023-04-18T07:44:59.624Z,97486.71
2023-04-18T07:47:31.566Z,97489.02
2023-04-18T07:50:03.445Z,97482.81
2023-04-18T07:52:33.820Z,97479.63
2023-04-18T07:55:09.080Z,97474.22
2023-04-18T07:57:39.581Z,97470.83
2023-04-18T08:00:12.937Z,97471.38
2023-04-18T08:02:46.372Z,97468.30
2023-04-18T08:05:17.147Z,97464.41
2023-04-18T08:07:52.458Z,97460.36
2023-04-18T08:10:25.415Z,97464.66
2023-04-18T08:12:58.426Z,97457.00
2023-04-18T08:15:33.211Z,97461.75
2023-04-18T08:18:03.602Z,97460.56
2023-04-18T08:20:35.636Z,97459.73
2023-04-18T08:23:10.233Z,97462.34
2023-04-18T08:25:47.786Z,97458.94
2023-04-18T08:28:19.143Z,97460.77
2023-04-18T08:30:50.166Z,97460.20
2023-04-18T08:33:23.473Z,97452.36
2023-04-18T08:35:53.922Z,97450.50
2023-04-18T08:38:42.245Z,97446.58
2023-04-18T08:41:12.990Z,97434.35
2023-04-18T08:43:44.176Z,97434.41
2023-04-18T08:46:14.786Z,97434.74
2023-04-18T08:48:47.606Z,97432.11
2023-04-18T08:51:18.536Z,97435.85
2023-04-18T08:53:52.047Z,97432.20
2023-04-18T08:56:25.679Z,97432.59
2023-04-18T08:59:02.331Z,97429.08
2023-04-18T09:01:51.847Z,97429.14
2023-04-18T09:04:36.182Z,97427.65
2023-04-18T09:07:08.297Z,97426.73
2023-04-18T09:09:49.799Z,97423.98
2023-04-18T09:12:24.752Z,97421.46
2023-04-18T09:14:59.412Z,97421.06
2023-04-18T09:17:37.441Z,97420.64
2023-04-18T09:20:10.642Z,97418.23
2023-04-18T09:22:51.204Z,97418.48
2023-04-18T09:25:35.516Z,97413.45
2023-04-18T09:28:24.393Z,97410.08
2023-04-18T09:30:55.919Z,97407.20
2023-04-18T09:33:34.086Z,97405.23
2023-04-18T09:36:20.480Z,97404.17
2023-04-18T09:38:56.295Z,97405.12
2023-04-18T09:41:27.763Z,97407.93
2023-04-18T09:44:15.057Z,97404.11
2023-04-18T09:46:47.400Z,97398.68
2023-04-18T09:49:20.531Z,97396.82
2023-04-18T09:51:52.550Z,97396.44
2023-04-18T09:54:28.258Z,97393.06
2023-04-18T09:57:03.010Z,97391.52
2023-04-18T09:59:42.020Z,97386.92
2023-04-18T10:02:18.896Z,97388.51
2023-04-18T10:04:49.506Z,97385.44
2023-04-18T10:07:20.732Z,97378.34
2023-04-18T10:09:51.259Z,97384.05
2023-04-18T10:12:25.257Z,97386.16
2023-04-18T10:15:00.800Z,97378.48
2023-04-18T10:17:56.016Z,97377.02
2023-04-18T10:20:31.785Z,97374.98
2023-04-18T10:23:23.180Z,97373.02
2023-04-18T10:25:54.016Z,97372.20
2023-04-18T10:28:26.228Z,97372.09
2023-04-18T10:31:03.049Z,97370.55
2023-04-18T10:33:35.156Z,97360.48
2023-04-18T10:36:19.729Z,97358.23
2023-04-18T10:38:51.608Z,97357.33
2023-04-18T10:41:27.153Z,97354.16
2023-04-18T10:44:22.277Z,97357.48
2023-04-18T10:47:21.374Z,97357.48
2023-04-18T10:49:58.563Z,97357.90
2023-04-18T10:52:29.659Z,97355.07
2023-04-18T10:55:13.958Z,97356.05
2023-04-18T10:57:45.421Z,97354.13
2023-04-18T11:00:18.252Z,97342.90
2023-04-18T11:02:55.607Z,97340.23
2023-04-18T11:05:28.035Z,97341.66
2023-04-18T11:07:58.525Z,97331.78
2023-04-18T11:10:29.682Z,97332.77
2023-04-18T11:13:04.258Z,97331.85
2023-04-18T11:15:39.769Z,97325.39
2023-04-18T11:18:11.953Z,97326.30
2023-04-18T11:20:49.978Z,97327.23
2023-04-18T11:23:24.943Z,97319.26
2023-04-18T11:26:03.419Z,97310.69
2023-04-18T11:28:34.516Z,97314.61
2023-04-18T11:31:09.205Z,97310.04
2023-04-18T11:33:41.014Z,97309.22
2023-04-18T11:36:12.073Z,97312.25
2023-04-18T11:38:43.045Z,97311.56
2023-04-18T11:41:17.087Z,97308.10
2023-04-18T11:43:48.787Z,97305.36
2023-04-18T11:46:19.401Z,97300.36
2023-04-18T11:48:50.729Z,97296.94
2023-04-18T11:51:36.744Z,97291.89
2023-04-18T11:54:13.253Z,97286.98
2023-04-18T11:56:50.402Z,97285.96
2023-04-18T11:59:24.081Z,97281.52
2023-04-18T12:02:16.221Z,97280.63
2023-04-18T12:04:59.354Z,97279.13
2023-04-18T12:07:36.938Z,97275.34
2023-04-18T12:10:10.784Z,97274.83
2023-04-18T12:12:49.743Z,97272.00
2023-04-18T12:15:21.517Z,97269.63
2023-04-18T12:17:52.477Z,97269.39
2023-04-18T12:20:27.184Z,97269.18
2023-04-18T12:22:57.736Z,97268.05
2023-04-18T12:25:28.827Z,97266.67
2023-04-18T12:28:01.348Z,97271.63
2023-04-18T12:30:34.158Z,97269.77
2023-04-18T12:33:08.911Z,97269.11
2023-04-18T12:35:39.930Z,97269.71
2023-04-18T12:38:10.811Z,97262.60
2023-04-18T12:40:41.649Z,97259.10
2023-04-18T12:43:12.272Z,97260.47
2023-04-18T12:45:43.183Z,97262.09
2023-04-18T12:48:15.212Z,97258.61
2023-04-18T12:50:45.456Z,97257.30
2023-04-18T12:53:24.697Z,97255.15
2023-04-18T12:56:03.222Z,97252.24
2023-04-18T12:58:34.973Z,97255.61
2023-04-18T13:01:09.130Z,97262.43
2023-04-18T13:03:40.381Z,97261.63
2023-04-18T13:06:11.285Z,97262.04
2023-04-18T13:08:49.789Z,97259.08
2023-04-18T13:11:22.485Z,97265.48
2023-04-18T13:13:53.094Z,97262.98
2023-04-18T13:16:24.872Z,97255.95
2023-04-18T13:18:55.024Z,97262.41
2023-04-18T13:21:53.431Z,97262.70
2023-04-18T13:24:24.342Z,97258.79
2023-04-18T13:26:55.357Z,97263.09
2023-04-18T13:29:28.112Z,97264.84
2023-04-18T13:32:08.391Z,97263.44
2023-04-18T13:34:49.338Z,97266.27
2023-04-18T13:37:19.650Z,97264.02
2023-04-18T13:39:50.127Z,97260.27
2023-04-18T13:42:20.925Z,97264.20
2023-04-18T13:44:51.720Z,97275.92
2023-04-18T13:47:23.272Z,97276.65
2023-04-18T13:49:54.665Z,97279.42
2023-04-18T13:52:26.106Z,97277.80
2023-04-18T13:54:56.646Z,97276.36
2023-04-18T13:57:33.293Z,97274.65
2023-04-18T14:00:08.840Z,97273.68
2023-04-18T14:02:41.875Z,97271.50
2023-04-18T14:05:15.728Z,97269.83
2023-04-18T14:07:47.265Z,97265.59
2023-04-18T14:10:21.615Z,97265.61
2023-04-18T14:12:58.522Z,97265.74
2023-04-18T14:15:31.767Z,97259.34
2023-04-18T14:18:22.151Z,97256.92
2023-04-18T14:21:02.999Z,97255.95
2023-04-18T14:23:49.975Z,97246.27
2023-04-18T14:26:23.576Z,97244.20
2023-04-18T14:28:54.178Z,97240.14
2023-04-18T14:31:26.667Z,97232.46
2023-04-18T14:34:00.589Z,97229.73
2023-04-18T14:36:33.301Z,97220.52
2023-04-18T14:39:04.890Z,97213.64
2023-04-18T14:41:35.285Z,97206.17
2023-04-18T14:46:54.651Z,97198.00
2023-04-18T14:49:30.148Z,97191.08
2023-04-18T14:52:00.856Z,97191.70
2023-04-18T14:54:34.654Z,97191.02
2023-04-18T14:57:07.934Z,97193.11
2023-04-18T14:59:40.823Z,97190.08
2023-04-18T15:02:11.882Z,97187.45
2023-04-18T15:04:42.393Z,97188.84
2023-04-18T15:07:15.232Z,97188.54
2023-04-18T15:09:48.515Z,97184.77
2023-04-18T15:12:21.324Z,97179.40
2023-04-18T15:14:56.385Z,97179.13
2023-04-18T15:17:30.847Z,97177.66
2023-04-18T15:20:05.433Z,97171.26
2023-04-18T15:22:48.016Z,97163.03
2023-04-18T15:25:22.986Z,97162.39
2023-04-18T15:27:54.188Z,97166.20
2023-04-18T15:30:27.808Z,97170.14
2023-04-18T15:32:58.397Z,97170.85
2023-04-18T15:35:32.352Z,97172.40
2023-04-18T15:38:14.415Z,97176.65
2023-04-18T15:41:02.773Z,97186.95
2023-04-18T15:43:42.268Z,97180.98
2023-04-18T15:46:12.697Z,97180.64
2023-04-18T15:48:43.209Z,97191.84
2023-04-18T15:51:16.649Z,97197.50
2023-04-18T15:53:48.463Z,97202.48
2023-04-18T15:56:19.311Z,97206.36
2023-04-18T15:58:53.992Z,97208.10
2023-04-18T16:01:30.563Z,97210.08
2023-04-18T16:04:01.676Z,97207.23
2023-04-18T16:06:35.034Z,97209.27
2023-04-18T16:09:07.614Z,97211.57
2023-04-18T16:11:40.176Z,97217.96
2023-04-18T16:14:11.829Z,97224.23
2023-04-18T16:16:42.403Z,97219.66
2023-04-18T16:19:14.507Z,97219.98
2023-04-18T16:21:46.793Z,97215.47
2023-04-18T16:24:17.711Z,97222.52
2023-04-18T16:26:51.803Z,97221.58
2023-04-18T16:29:22.143Z,97221.73
2023-04-18T16:31:53.704Z,97226.55
2023-04-18T16:34:24.285Z,97228.52
2023-04-18T16:36:57.722Z,97233.31
2023-04-18T16:39:31.991Z,97236.13
2023-04-18T16:42:05.858Z,97240.74
2023-04-18T16:44:43.094Z,97247.27
2023-04-18T16:47:14.827Z,97249.59
2023-04-18T16:49:51.535Z,97250.75
2023-04-18T16:52:23.818Z,97249.63
2023-04-18T16:54:59.519Z,97250.50
2023-04-18T16:57:31.578Z,97250.80
2023-04-18T17:00:06.490Z,97255.11
2023-04-18T17:02:46.939Z,97261.39
2023-04-18T17:05:19.453Z,97264.23
2023-04-18T17:07:51.300Z,97267.41
2023-04-18T17:10:23.522Z,97273.41
2023-04-18T17:12:54.563Z,97273.36
2023-04-18T17:15:34.583Z,97275.52
2023-04-18T17:18:05.118Z,97277.10
2023-04-18T17:20:39.060Z,97277.01
2023-04-18T17:23:09.469Z,97274.96
2023-04-18T17:25:41.305Z,97278.67
2023-04-18T17:28:20.890Z,97281.84
2023-04-18T17:30:57.605Z,97282.83
2023-04-18T17:33:55.957Z,97287.30
2023-04-18T17:36:32.179Z,97289.19
2023-04-18T17:39:06.166Z,97288.70
2023-04-18T17:41:38.821Z,97287.72
2023-04-18T17:44:11.099Z,97290.67
2023-04-18T17:46:52.172Z,97290.61
2023-04-18T17:49:24.391Z,97287.52
2023-04-18T17:51:55.148Z,97290.41
2023-04-18T17:54:27.052Z,97292.82
2023-04-18T17:56:58.090Z,97295.20
2023-04-18T17:59:29.637Z,97294.38
2023-04-18T18:01:59.988Z,97294.41
2023-04-18T18:04:30.656Z,97289.50
2023-04-18T18:07:07.533Z,97294.92
2023-04-18T18:09:42.857Z,97295.52
2023-04-18T18:12:15.406Z,97295.34
2023-04-18T18:14:47.404Z,97297.27
2023-04-18T18:17:24.620Z,97296.92
2023-04-18T18:20:01.332Z,97293.96
2023-04-18T18:22:35.862Z,97297.52
2023-04-18T18:25:09.180Z,97299.15
2023-04-18T18:27:41.082Z,97303.32
2023-04-18T18:30:26.324Z,97300.58
2023-04-18T18:32:57.805Z,97297.64
2023-04-18T18:35:32.120Z,97298.16
2023-04-18T18:38:03.673Z,97302.25
2023-04-18T18:40:42.688Z,97312.33
2023-04-18T18:43:16.879Z,97306.85
2023-04-18T18:45:47.587Z,97304.04
2023-04-18T18:48:18.173Z,97299.67
2023-04-18T18:50:53.966Z,97303.03
2023-04-18T18:53:25.498Z,97301.62
2023-04-18T18:55:57.774Z,97298.34
2023-04-18T19:01:30.872Z,97282.31
2023-04-18T19:04:03.750Z,97276.83
2023-04-18T19:06:35.712Z,97277.09
2023-04-18T19:09:19.877Z,97271.55
2023-04-18T19:11:51.547Z,97259.09
2023-04-18T19:14:21.666Z,97254.98
2023-04-18T19:16:56.808Z,97249.08
2023-04-18T19:19:32.484Z,97248.73
2023-04-18T19:22:05.787Z,97240.72
2023-04-18T19:24:41.022Z,97237.39
2023-04-18T19:27:11.438Z,97230.28
2023-04-18T19:29:48.250Z,97235.44
2023-04-18T19:32:20.976Z,97237.81
2023-04-18T19:34:52.296Z,97239.03
2023-04-18T19:37:30.556Z,97242.67
2023-04-18T19:40:02.753Z,97262.70
2023-04-18T19:42:44.944Z,97264.17
2023-04-18T19:45:20.532Z,97247.81
2023-04-18T19:47:55.298Z,97247.97
2023-04-18T19:50:28.064Z,97247.57
2023-04-18T19:53:01.312Z,97232.21
2023-04-18T19:55:38.415Z,97228.27
2023-04-18T19:58:10.921Z,97226.87
2023-04-18T20:00:42.946Z,97227.70
2023-04-18T20:03:25.945Z,97227.15
2023-04-18T20:05:59.745Z,97229.42
2023-04-18T20:08:31.931Z,97222.84
2023-04-18T20:11:03.440Z,97218.89
2023-04-18T20:13:38.259Z,97222.27
2023-04-18T20:16:15.366Z,97216.92
2023-04-18T20:18:49.869Z,97217.40
2023-04-18T20:21:21.645Z,97214.15
2023-04-18T20:23:56.379Z,97224.45
2023-04-18T20:26:31.363Z,97224.10
2023-04-18T20:29:03.375Z,97223.77
2023-04-18T20:31:35.079Z,97223.63
2023-04-18T20:34:06.350Z,97220.68
2023-04-18T20:36:41.140Z,97224.01
2023-04-18T20:39:12.835Z,97231.94
2023-04-18T20:41:46.177Z,97232.96
2023-04-18T20:44:20.988Z,97228.98
2023-04-18T20:46:59.541Z,97227.14
2023-04-18T20:49:33.473Z,97225.80
2023-04-18T20:52:08.083Z,97224.81
2023-04-18T20:54:38.841Z,97225.70
2023-04-18T20:57:10.157Z,97222.91
2023-04-18T20:59:40.896Z,97221.60
2023-04-18T21:02:11.824Z,97226.08
2023-04-18T21:04:46.515Z,97225.03
2023-04-18T21:07:21.509Z,97223.23
2023-04-18T21:09:52.104Z,97226.48
2023-04-18T21:12:22.479Z,97224.19
2023-04-18T21:14:53.062Z,97220.23
2023-04-18T21:17:25.393Z,97221.95
2023-04-18T21:19:56.823Z,97223.52
2023-04-18T21:22:27.214Z,97213.89
2023-04-18T21:24:57.688Z,97210.85
2023-04-18T21:27:28.148Z,97209.19
2023-04-18T21:29:58.366Z,97202.34
2023-04-18T21:32:28.921Z,97195.69
2023-04-18T21:35:01.130Z,97193.00
2023-04-18T21:37:31.974Z,97196.27
2023-04-18T21:40:06.242Z,97195.74
2023-04-18T21:42:36.771Z,97195.85
2023-04-18T21:45:09.133Z,97191.59
2023-04-18T21:47:40.348Z,97193.53
2023-04-18T21:50:12.210Z,97196.04
2023-04-18T21:52:42.383Z,97190.48
2023-04-18T21:55:13.363Z,97191.86
2023-04-18T21:57:43.779Z,97184.21
2023-04-18T22:00:16.552Z,97183.93
2023-04-18T22:02:46.864Z,97180.17
2023-04-18T22:05:17.982Z,97179.30
2023-04-18T22:07:57.402Z,97177.79
2023-04-18T22:10:28.815Z,97180.27
2023-04-18T22:12:59.888Z,97177.24
2023-04-18T22:15:31.089Z,97179.77
2023-04-18T22:18:01.825Z,97175.67
2023-04-18T22:20:33.274Z,97169.96
2023-04-18T22:23:04.197Z,97172.45
2023-04-18T22:25:34.966Z,97165.59
2023-04-18T22:28:05.624Z,97155.14
2023-04-18T22:30:36.083Z,97158.83
2023-04-18T22:33:06.409Z,97163.20
2023-04-18T22:35:36.480Z,97160.52
2023-04-18T22:38:06.864Z,97149.04
2023-04-18T22:40:37.004Z,97132.38
2023-04-18T22:43:07.592Z,97124.27
2023-04-18T22:45:38.639Z,97129.23
2023-04-18T22:48:11.208Z,97131.58
2023-04-18T22:50:42.501Z,97129.98
2023-04-18T22:53:14.054Z,97135.23
2023-04-18T22:55:45.264Z,97133.98
2023-04-18T22:58:15.454Z,97130.71
2023-04-18T23:00:46.465Z,97127.50
2023-04-18T23:03:17.375Z,97124.20
2023-04-18T23:05:47.866Z,97122.25
2023-04-18T23:08:20.467Z,97120.56
2023-04-18T23:10:51.004Z,97122.65
2023-04-18T23:13:21.235Z,97123.42
2023-04-18T23:15:51.783Z,97126.08
2023-04-18T23:18:22.245Z,97123.00
2023-04-18T23:20:52.427Z,97118.55
2023-04-18T23:23:22.562Z,97118.36
2023-04-18T23:25:52.753Z,97119.85
2023-04-18T23:28:23.312Z,97117.80
2023-04-18T23:30:53.782Z,97113.63
2023-04-18T23:33:24.008Z,97111.67
2023-04-18T23:35:54.687Z,97107.23
2023-04-18T23:38:24.721Z,97105.95
2023-04-18T23:40:55.168Z,97106.61
2023-04-18T23:43:25.281Z,97102.83
2023-04-18T23:45:55.452Z,97098.81
2023-04-18T23:48:25.721Z,97093.33
2023-04-18T23:50:55.928Z,97089.12
2023-04-18T23:53:26.076Z,97086.88
2023-04-18T23:55:56.275Z,97085.80
2023-04-18T23:58:26.665Z,97081.30
